Terminal Aerodrome Forecast
Issued by NWS Sioux Falls, SD

Home | Current Version | Previous Version | Text Only | Print | Product List | Glossary On
Versions: 1 2 3 4 5 6 7 8 9 10 11 12 13 14 15 16 17 18 19 20 21 22 23 24 25 26 27 28 29 30
225
FTUS43 KFSD 162334
TAFSUX
TAF
KSUX 162334Z 1700/1724 18008KT P6SM BKN250
     FM170400 16008KT P6SM BKN250 WS016/21040KT
     FM170900 17007KT P6SM OVC080
     FM171400 22006KT P6SM FEW200
     FM171800 30012KT P6SM FEW140=

USA.gov is the U.S. government's official web portal to all federal, state and local government web resources and services.